Time;durP1;ratioP1;P1;durP2;ratioP2;P2;SDS_P1;SDS_P2;PMS_P1;PMS_P2;Temp;Humidity;BMP_temperature;BMP_pressure;BME280_temperature;BME280_humidity;BME280_pressure;Samples;Min_cycle;Max_cycle;Signal;HPM_P1;HPM_P2
2021/07/14 00:01:51;;;;;;;10.68;4.80;;;14.60;99.90;;;13.62;100.00;97070.75;5046969;28;20041;-63
2021/07/14 00:04:39;;;;;;;9.45;5.32;;;14.60;99.90;;;13.58;100.00;97063.09;5039176;28;20041;-65
2021/07/14 00:07:26;;;;;;;11.93;5.75;;;14.50;99.90;;;13.56;100.00;97061.53;5046493;28;20064;-65
2021/07/14 00:10:20;;;;;;;10.85;5.60;;;14.60;99.90;;;13.60;100.00;97063.00;5048482;28;20098;-65
2021/07/14 00:23:12;;;;;;;14.18;3.83;;;14.50;99.90;;;13.56;100.00;97044.09;5002682;28;20061;-66
2021/07/14 00:26:00;;;;;;;5.32;3.88;;;14.50;99.90;;;13.62;100.00;97032.47;5046440;28;20390;-66
2021/07/14 00:28:49;;;;;;;6.90;3.85;;;14.50;99.90;;;13.70;100.00;97050.22;5047234;28;20145;-66
2021/07/14 00:31:37;;;;;;;7.47;4.38;;;14.50;99.90;;;13.63;100.00;97048.94;5047967;28;20063;-66
2021/07/14 00:34:25;;;;;;;11.85;5.20;;;14.50;99.90;;;13.59;100.00;97043.94;5046005;28;20060;-66
2021/07/14 00:37:14;;;;;;;8.35;4.22;;;14.50;99.90;;;13.56;100.00;97023.25;5046951;28;20362;-64
2021/07/14 00:40:05;;;;;;;8.57;4.28;;;14.50;99.90;;;13.66;100.00;97023.50;5044475;28;20134;-65
2021/07/14 00:42:52;;;;;;;6.55;4.82;;;14.50;99.90;;;13.64;100.00;97032.34;5030108;28;20037;-65
2021/07/14 00:45:40;;;;;;;12.52;4.93;;;14.50;99.90;;;13.64;100.00;97038.41;5042537;28;20129;-65
2021/07/14 00:48:28;;;;;;;8.52;3.95;;;14.50;99.90;;;13.72;100.00;97043.13;5050624;28;20129;-65
2021/07/14 00:51:17;;;;;;;9.48;3.97;;;14.50;99.90;;;13.69;100.00;97032.91;5052174;28;20057;-65
2021/07/14 00:54:05;;;;;;;4.60;3.58;;;14.60;99.90;;;13.70;100.00;97024.97;5052513;28;20512;-65
2021/07/14 00:56:52;;;;;;;6.30;3.97;;;14.60;99.90;;;13.55;100.00;97018.97;5046880;28;20515;-65
2021/07/14 00:59:41;;;;;;;11.35;4.38;;;14.60;99.90;;;13.63;100.00;97004.59;5048298;28;20552;-65
2021/07/14 01:02:28;;;;;;;9.60;4.47;;;14.60;99.90;;;13.44;100.00;97003.16;5026228;28;20045;-65
2021/07/14 01:05:38;;;;;;;6.72;4.85;;;14.60;99.90;;;13.50;100.00;97005.41;5037059;28;20178;-65
2021/07/14 01:08:44;;;;;;;8.75;5.03;;;14.60;99.90;;;13.51;100.00;97019.25;5050750;28;20384;-65
2021/07/14 01:11:34;;;;;;;22.33;5.97;;;14.60;99.90;;;13.53;100.00;97017.41;5033744;28;20501;-65
2021/07/14 01:14:35;;;;;;;15.48;5.45;;;14.60;99.90;;;13.61;100.00;97020.34;5030685;28;20052;-65
2021/07/14 01:17:25;;;;;;;10.30;4.00;;;14.60;99.90;;;13.72;100.00;97015.28;5045152;28;20040;-65
2021/07/14 01:20:28;;;;;;;16.70;4.75;;;14.60;99.90;;;13.65;100.00;97021.00;5052052;28;20037;-65
2021/07/14 01:24:04;;;;;;;10.23;4.63;;;14.60;99.90;;;13.52;100.00;97011.31;5050521;28;20131;-65
2021/07/14 01:27:17;;;;;;;9.50;4.80;;;14.50;99.90;;;13.58;100.00;97010.13;5026102;28;20041;-65
2021/07/14 01:30:14;;;;;;;8.15;3.85;;;14.60;99.90;;;13.68;100.00;97015.56;5031751;28;20045;-65
2021/07/14 01:33:03;;;;;;;8.85;3.78;;;14.60;99.90;;;13.70;100.00;97016.31;5034128;28;20049;-65
2021/07/14 01:35:53;;;;;;;7.00;3.05;;;14.60;99.90;;;13.71;100.00;97015.41;5035587;28;20049;-65
2021/07/14 01:38:45;;;;;;;7.32;3.17;;;14.60;99.90;;;13.69;100.00;97004.22;5030583;28;20125;-65
2021/07/14 01:41:36;;;;;;;5.93;3.10;;;14.70;99.90;;;13.67;100.00;96998.25;5027915;28;20041;-65
2021/07/14 01:44:27;;;;;;;5.05;3.13;;;14.70;99.90;;;13.75;100.00;96993.38;5031648;28;20033;-65
2021/07/14 01:47:15;;;;;;;8.10;2.70;;;14.60;99.90;;;13.79;100.00;96998.28;5030623;28;20071;-65
2021/07/14 01:50:06;;;;;;;4.18;2.60;;;14.60;99.90;;;13.73;100.00;97003.06;5026631;28;20037;-66
2021/07/14 01:52:54;;;;;;;4.20;2.75;;;14.70;99.90;;;13.74;100.00;97004.75;5048910;28;20045;-65
2021/07/14 01:55:43;;;;;;;5.70;2.58;;;14.70;99.90;;;13.80;100.00;97002.59;5046957;28;20492;-65
2021/07/14 01:58:32;;;;;;;5.47;3.17;;;14.70;99.90;;;13.80;100.00;97017.41;5045526;28;20048;-65
2021/07/14 02:01:20;;;;;;;4.38;2.60;;;14.60;99.90;;;13.87;100.00;97026.50;5032893;28;20547;-65
2021/07/14 02:04:31;;;;;;;7.22;2.80;;;14.70;99.90;;;13.89;100.00;97035.06;5032611;28;20132;-65
2021/07/14 02:07:27;;;;;;;5.72;3.40;;;14.70;99.90;;;13.63;100.00;97041.94;5043675;28;20127;-65
2021/07/14 02:10:15;;;;;;;5.93;2.95;;;14.70;99.90;;;13.68;100.00;97045.09;5045403;28;20045;-65
2021/07/14 02:13:04;;;;;;;9.77;4.13;;;14.70;99.90;;;13.56;100.00;97056.31;5051330;28;20045;-65
2021/07/14 02:15:54;;;;;;;6.40;3.33;;;14.70;99.90;;;13.59;100.00;97056.09;5049482;28;20132;-65
2021/07/14 02:18:45;;;;;;;6.22;2.33;;;14.70;99.90;;;13.66;100.00;97046.13;5032562;28;20052;-65
2021/07/14 02:21:35;;;;;;;4.35;2.83;;;14.60;99.90;;;13.69;100.00;97059.00;5034561;28;20436;-65
2021/07/14 02:24:23;;;;;;;5.45;3.03;;;14.60;99.90;;;13.65;100.00;97055.72;5046501;28;20038;-65
2021/07/14 02:27:11;;;;;;;4.22;2.80;;;14.60;99.90;;;13.64;100.00;97063.63;5049979;28;20048;-65
2021/07/14 02:30:16;;;;;;;6.93;2.75;;;14.70;99.90;;;13.72;100.00;97062.22;5040640;28;20369;-65
2021/07/14 02:33:09;;;;;;;5.53;2.90;;;14.70;99.90;;;13.59;100.00;97058.72;5048686;28;20052;-65
2021/07/14 02:36:02;;;;;;;5.82;2.63;;;14.70;99.90;;;13.72;100.00;97050.97;5044814;28;20417;-65
2021/07/14 02:38:57;;;;;;;7.60;2.97;;;14.70;99.90;;;13.74;100.00;97056.91;5059151;28;20505;-65
2021/07/14 02:41:54;;;;;;;9.35;3.65;;;14.70;99.90;;;13.65;100.00;97049.69;5039718;28;20029;-65
2021/07/14 02:44:45;;;;;;;5.45;3.00;;;14.60;99.90;;;13.59;100.00;97043.94;5042182;28;20114;-65
2021/07/14 02:47:38;;;;;;;12.02;4.10;;;14.70;99.90;;;13.57;100.00;97042.31;5027247;28;20045;-65
2021/07/14 02:50:28;;;;;;;8.40;4.00;;;14.60;99.90;;;13.55;100.00;97033.78;5060178;28;20041;-65
2021/07/14 02:53:25;;;;;;;6.22;3.53;;;14.60;99.90;;;13.53;100.00;97020.84;5027896;28;20375;-65
2021/07/14 02:56:18;;;;;;;7.65;3.88;;;14.50;99.90;;;13.53;100.00;97017.41;5024889;28;20044;-65
2021/07/14 02:59:09;;;;;;;8.23;3.33;;;14.50;99.90;;;13.66;100.00;97007.00;5044858;28;20041;-65
2021/07/14 03:01:59;;;;;;;8.55;3.42;;;14.50;99.90;;;13.58;100.00;97005.72;5031235;28;20041;-65
2021/07/14 03:04:50;;;;;;;4.88;3.15;;;14.40;99.90;;;13.46;100.00;97006.53;5034149;28;20049;-65
2021/07/14 03:07:39;;;;;;;12.00;5.25;;;14.40;99.90;;;13.44;100.00;97002.34;5030532;28;20063;-65
2021/07/14 03:10:28;;;;;;;9.13;4.50;;;14.50;99.90;;;13.57;100.00;97006.69;5033823;28;20041;-65
2021/07/14 03:13:15;;;;;;;7.75;3.80;;;14.50;99.90;;;13.54;100.00;97008.63;5031982;28;20298;-65
2021/07/14 03:16:04;;;;;;;8.98;5.03;;;14.40;99.90;;;13.43;100.00;97011.91;5033033;28;20098;-65
2021/07/14 03:18:53;;;;;;;10.50;4.60;;;14.50;99.90;;;13.55;100.00;97016.38;5029517;28;20497;-65
2021/07/14 03:21:41;;;;;;;10.35;5.45;;;14.50;99.90;;;13.52;100.00;97023.53;5026889;28;20501;-65
2021/07/14 03:24:29;;;;;;;9.48;4.97;;;14.50;99.90;;;13.46;100.00;97019.56;5031884;28;20052;-65
2021/07/14 03:27:19;;;;;;;10.15;4.47;;;14.50;99.90;;;13.45;100.00;97019.66;5044511;28;20041;-65
2021/07/14 03:30:08;;;;;;;11.95;5.63;;;14.50;99.90;;;13.50;100.00;97010.63;5042163;28;20044;-65
2021/07/14 03:32:55;;;;;;;12.75;6.43;;;14.40;99.90;;;13.40;100.00;97017.31;5047272;28;20052;-65
2021/07/14 03:35:44;;;;;;;10.18;5.53;;;14.50;99.90;;;13.49;100.00;97015.91;5046554;28;20060;-65
2021/07/14 03:38:34;;;;;;;7.07;4.97;;;14.50;99.90;;;13.49;100.00;97019.34;5041242;28;20072;-65
2021/07/14 03:41:22;;;;;;;9.75;5.75;;;14.40;99.90;;;13.49;100.00;97010.69;5032931;28;20044;-66
2021/07/14 03:44:13;;;;;;;10.23;5.75;;;14.50;99.90;;;13.47;100.00;97016.00;5035936;28;20067;-65
2021/07/14 03:47:02;;;;;;;10.02;5.50;;;14.40;99.90;;;13.48;100.00;97024.66;5045312;28;20048;-65
2021/07/14 03:49:52;;;;;;;10.93;7.07;;;14.40;99.90;;;13.54;100.00;97024.28;5048365;28;20055;-66
2021/07/14 03:52:40;;;;;;;11.70;6.68;;;14.40;99.90;;;13.47;100.00;97025.59;5047738;28;20041;-65
2021/07/14 03:55:28;;;;;;;12.90;6.78;;;14.40;99.90;;;13.53;100.00;97030.44;5033149;28;20111;-65
2021/07/14 03:58:17;;;;;;;11.55;6.65;;;14.40;99.90;;;13.50;100.00;97021.03;5030959;28;20033;-65
2021/07/14 04:01:05;;;;;;;13.43;8.55;;;14.40;99.90;;;13.41;100.00;97028.59;5030640;28;20037;-65
2021/07/14 04:03:53;;;;;;;10.00;6.28;;;14.40;99.90;;;13.36;100.00;97016.69;5030522;28;20033;-65
2021/07/14 04:06:46;;;;;;;11.05;8.43;;;14.40;99.90;;;13.36;100.00;97019.31;5032667;28;20029;-64
2021/07/14 04:09:34;;;;;;;21.17;9.82;;;14.40;99.90;;;13.33;100.00;97021.25;5034391;28;20044;-66
2021/07/14 04:12:21;;;;;;;9.38;6.50;;;14.40;99.90;;;13.45;100.00;97025.69;5042925;28;20533;-66
2021/07/14 04:15:10;;;;;;;10.75;6.20;;;14.40;99.90;;;13.54;100.00;97032.94;5049789;28;20044;-65
2021/07/14 04:17:58;;;;;;;9.90;5.53;;;14.40;99.90;;;13.57;100.00;97029.28;5050490;28;20049;-65
2021/07/14 04:20:45;;;;;;;10.70;5.15;;;14.50;99.90;;;13.48;100.00;97027.25;5048964;28;20037;-65
2021/07/14 04:23:32;;;;;;;9.18;5.75;;;14.50;99.90;;;13.45;100.00;97020.47;5048208;28;20045;-65
2021/07/14 04:26:20;;;;;;;11.18;6.15;;;14.50;99.90;;;13.37;100.00;97023.56;5052649;28;20052;-65
2021/07/14 04:29:08;;;;;;;6.68;4.32;;;14.50;99.90;;;13.52;100.00;97032.19;5050142;28;20389;-65
2021/07/14 04:31:56;;;;;;;8.05;4.40;;;14.40;99.90;;;13.57;100.00;97039.72;5043286;28;20037;-65
2021/07/14 04:34:43;;;;;;;7.15;4.15;;;14.50;99.90;;;13.55;100.00;97032.00;5048741;28;20539;-65
2021/07/14 04:37:31;;;;;;;7.60;4.60;;;14.40;99.90;;;13.52;100.00;97024.34;5050550;28;20033;-65
2021/07/14 04:40:18;;;;;;;11.55;4.82;;;14.50;99.90;;;13.56;100.00;97022.41;5052804;28;20041;-66
2021/07/14 04:43:06;;;;;;;7.13;4.43;;;14.50;99.90;;;13.67;100.00;97022.56;5049501;28;20319;-65
2021/07/14 04:45:53;;;;;;;6.82;3.78;;;14.50;99.90;;;13.79;100.00;97021.75;5051628;28;20048;-66
2021/07/14 04:48:41;;;;;;;6.40;4.35;;;14.50;99.90;;;13.73;100.00;97014.34;5050211;28;20048;-66
2021/07/14 04:51:29;;;;;;;8.43;4.15;;;14.60;99.90;;;13.83;100.00;97027.63;5042088;28;20061;-65
2021/07/14 04:54:16;;;;;;;8.85;4.97;;;14.60;99.90;;;13.85;100.00;97027.53;5045055;28;20421;-65
2021/07/14 04:57:04;;;;;;;11.55;4.78;;;14.60;99.90;;;13.88;100.00;97025.56;5039067;28;20044;-65
2021/07/14 04:59:51;;;;;;;6.82;4.72;;;14.70;99.90;;;13.89;100.00;97026.38;5052087;28;20104;-65
2021/07/14 05:02:39;;;;;;;7.10;4.07;;;14.80;99.90;;;13.94;100.00;97025.16;5048837;28;20047;-65
2021/07/14 05:05:26;;;;;;;9.93;3.90;;;14.80;99.90;;;14.12;100.00;97027.53;5051839;28;20033;-66
2021/07/14 05:08:14;;;;;;;5.65;3.17;;;14.90;99.90;;;14.18;100.00;97024.50;5051961;28;20049;-65
2021/07/14 05:11:02;;;;;;;6.93;4.20;;;14.90;99.90;;;14.23;100.00;97036.31;5052340;28;20052;-63
2021/07/14 05:13:49;;;;;;;5.35;3.63;;;15.10;99.90;;;14.35;100.00;97026.84;5052115;28;20052;-63
2021/07/14 05:16:37;;;;;;;9.27;4.85;;;15.10;99.90;;;14.27;100.00;97023.88;5022406;28;20128;-63
2021/07/14 05:19:24;;;;;;;8.48;4.15;;;15.30;99.90;;;14.32;100.00;97029.66;5049857;28;20033;-62
2021/07/14 05:22:13;;;;;;;8.93;4.57;;;15.30;99.90;;;14.24;100.00;97031.94;5052326;28;20409;-62
2021/07/14 05:25:01;;;;;;;6.30;3.20;;;15.40;99.90;;;14.31;100.00;97032.34;5049553;28;20040;-62
2021/07/14 05:27:48;;;;;;;9.15;4.13;;;15.40;99.90;;;14.31;100.00;97040.19;5052115;28;20053;-62
2021/07/14 05:30:39;;;;;;;7.70;4.45;;;15.30;99.90;;;14.07;100.00;97047.84;5048914;28;20041;-62
2021/07/14 05:33:26;;;;;;;7.43;4.38;;;15.30;99.90;;;14.20;100.00;97046.09;5048420;28;20037;-62
2021/07/14 05:36:14;;;;;;;10.30;4.97;;;15.20;99.90;;;14.32;100.00;97044.47;5048587;28;20037;-63
2021/07/14 05:39:03;;;;;;;14.77;5.22;;;15.10;99.90;;;13.98;100.00;97050.13;5041491;28;20509;-63
2021/07/14 05:41:50;;;;;;;8.20;5.15;;;15.20;99.90;;;13.99;100.00;97033.53;5050138;28;20056;-62
2021/07/14 05:44:38;;;;;;;9.52;4.68;;;15.20;99.90;;;14.19;100.00;97031.41;5045635;28;20052;-62
2021/07/14 05:47:25;;;;;;;8.00;5.53;;;15.20;99.90;;;14.15;100.00;97035.16;5050673;28;20136;-62
2021/07/14 05:50:13;;;;;;;8.57;5.18;;;15.10;99.90;;;14.09;100.00;97033.75;5049857;28;20044;-63
2021/07/14 05:53:00;;;;;;;11.60;4.90;;;15.10;99.90;;;14.15;100.00;97041.19;5042469;28;20171;-63
2021/07/14 05:55:47;;;;;;;9.52;5.40;;;15.10;99.90;;;14.17;100.00;97034.09;5048449;28;20509;-63
2021/07/14 05:58:35;;;;;;;15.73;6.35;;;15.10;99.90;;;13.98;100.00;97036.22;5049222;28;20040;-62
2021/07/14 06:01:22;;;;;;;9.68;6.60;;;15.10;99.90;;;14.20;100.00;97027.84;5050923;28;20516;-63
2021/07/14 06:04:10;;;;;;;9.57;6.40;;;15.10;99.90;;;14.14;100.00;97028.22;5048276;28;20063;-63
2021/07/14 06:06:59;;;;;;;9.20;4.78;;;15.10;99.90;;;14.19;100.00;97028.78;5049798;28;20044;-62
2021/07/14 06:09:46;;;;;;;10.15;4.78;;;15.20;99.90;;;14.33;100.00;97026.09;5051125;28;20052;-62
2021/07/14 06:12:34;;;;;;;8.63;4.40;;;15.20;99.90;;;14.21;100.00;97034.75;5049639;28;20063;-63
2021/07/14 06:15:26;;;;;;;12.82;6.38;;;15.30;99.90;;;14.29;100.00;97034.22;5049080;28;20148;-63
2021/07/14 06:18:13;;;;;;;8.63;5.88;;;15.30;99.90;;;14.18;100.00;97038.38;5048748;28;20045;-63
2021/07/14 06:21:02;;;;;;;9.02;5.18;;;15.30;99.90;;;14.22;100.00;97034.63;5048562;28;20037;-63
2021/07/14 06:23:50;;;;;;;11.60;5.43;;;15.20;99.90;;;14.17;100.00;97039.31;5032784;28;20049;-63
2021/07/14 06:26:39;;;;;;;10.77;5.20;;;15.20;99.90;;;14.20;100.00;97027.84;5047697;28;20037;-62
2021/07/14 06:29:27;;;;;;;14.73;6.43;;;15.30;99.90;;;14.01;100.00;97042.09;5050999;28;20048;-62
2021/07/14 06:32:14;;;;;;;9.30;5.32;;;15.30;99.90;;;14.26;100.00;97027.44;5032312;28;20052;-62
2021/07/14 06:35:04;;;;;;;9.32;5.30;;;15.30;99.90;;;14.21;100.00;97019.91;5044958;28;20060;-63
2021/07/14 06:37:53;;;;;;;11.73;5.00;;;15.30;99.90;;;14.34;100.00;97024.31;5040288;28;20049;-62
2021/07/14 06:40:41;;;;;;;12.30;7.07;;;15.30;99.90;;;14.07;100.00;97024.34;5047706;28;20052;-62
2021/07/14 06:43:49;;;;;;;14.35;7.30;;;15.40;99.90;;;14.34;100.00;97027.75;5048061;28;20057;-62
2021/07/14 06:46:36;;;;;;;12.73;6.15;;;15.50;99.90;;;14.40;100.00;97014.28;5047798;28;20049;-62
2021/07/14 06:49:24;;;;;;;9.65;6.72;;;15.50;99.90;;;14.25;100.00;97011.88;5049709;28;20052;-63
2021/07/14 06:52:11;;;;;;;14.45;7.38;;;15.60;99.90;;;14.13;100.00;97009.13;5060568;28;20042;-63
2021/07/14 06:54:59;;;;;;;14.00;7.70;;;15.60;99.90;;;14.31;100.00;97017.53;5047912;28;20412;-62
2021/07/14 06:57:46;;;;;;;9.77;7.85;;;15.60;99.90;;;14.17;100.00;97028.06;5037773;28;20636;-63
2021/07/14 07:00:35;;;;;;;11.00;6.88;;;15.60;99.90;;;14.38;100.00;97016.16;5047605;28;20040;-63
2021/07/14 07:03:23;;;;;;;14.23;7.22;;;15.60;99.90;;;14.23;100.00;97009.34;5041743;28;20187;-63
2021/07/14 07:06:10;;;;;;;9.82;6.40;;;15.60;99.90;;;14.28;100.00;97022.09;5048012;28;20041;-62
2021/07/14 07:08:58;;;;;;;9.65;6.80;;;15.50;99.90;;;14.38;100.00;97020.56;5041377;28;20538;-63
2021/07/14 07:11:45;;;;;;;9.82;6.38;;;15.40;99.90;;;14.26;100.00;97042.28;5045169;28;21882;-62
2021/07/14 07:14:33;;;;;;;8.25;5.88;;;15.40;99.90;;;14.39;100.00;97040.50;5047308;28;20045;-62
2021/07/14 07:17:20;;;;;;;10.93;7.38;;;15.30;99.90;;;14.22;100.00;97045.06;5047438;28;20622;-62
2021/07/14 07:20:09;;;;;;;12.35;7.65;;;15.40;99.90;;;14.35;100.00;97042.50;5046430;28;20048;-63
2021/07/14 07:22:56;;;;;;;8.10;6.85;;;15.50;99.90;;;14.20;100.00;97044.31;5042086;28;20045;-62
2021/07/14 07:25:44;;;;;;;12.23;7.20;;;15.60;99.90;;;14.18;100.00;97054.03;5039834;28;20399;-63
2021/07/14 07:28:40;;;;;;;9.68;7.13;;;15.50;99.90;;;14.22;100.00;97044.25;5049068;28;20087;-63
2021/07/14 07:31:27;;;;;;;9.23;5.55;;;15.60;99.90;;;14.51;100.00;97039.69;5034992;28;20489;-62
2021/07/14 07:34:16;;;;;;;8.45;5.20;;;15.50;99.90;;;14.49;100.00;97046.81;5047638;28;20044;-63
2021/07/14 07:37:04;;;;;;;17.55;6.15;;;15.50;99.90;;;14.41;100.00;97038.63;5049843;28;20059;-62
2021/07/14 07:39:51;;;;;;;7.15;4.88;;;15.60;99.90;;;14.59;100.00;97034.81;5048234;28;20053;-62
2021/07/14 07:42:40;;;;;;;16.30;5.47;;;15.60;99.90;;;14.49;100.00;97038.13;5046785;28;20044;-63
2021/07/14 07:45:28;;;;;;;8.63;4.10;;;15.70;99.90;;;14.72;100.00;97031.38;5046551;28;20440;-63
2021/07/14 07:48:15;;;;;;;8.02;4.35;;;15.80;99.90;;;14.65;100.00;97041.41;5047722;28;20063;-63
2021/07/14 07:51:05;;;;;;;7.90;3.85;;;15.90;99.90;;;14.70;99.79;97035.88;5046572;28;20049;-62
2021/07/14 07:53:53;;;;;;;5.55;4.15;;;15.90;99.90;;;14.52;100.00;97043.97;5045231;28;20056;-63
2021/07/14 07:56:40;;;;;;;6.20;3.65;;;15.90;99.90;;;14.62;100.00;97044.25;5035086;28;20378;-63
2021/07/14 07:59:28;;;;;;;7.20;4.38;;;15.80;99.90;;;14.51;100.00;97041.47;5048268;28;20048;-63
2021/07/14 08:02:15;;;;;;;7.32;4.40;;;15.80;99.90;;;14.58;100.00;97043.59;5047046;28;20048;-63
2021/07/14 08:05:04;;;;;;;8.00;4.65;;;15.80;99.90;;;14.52;100.00;97037.91;5045018;28;20127;-63
2021/07/14 08:07:53;;;;;;;7.13;3.70;;;15.80;99.90;;;14.67;100.00;97051.78;5045152;28;20040;-63
2021/07/14 08:10:40;;;;;;;9.38;3.95;;;15.80;99.90;;;14.67;100.00;97049.16;5029268;28;20038;-63
2021/07/14 08:13:28;;;;;;;8.68;4.80;;;15.70;99.90;;;14.48;100.00;97057.34;5043582;28;20417;-63
2021/07/14 08:16:15;;;;;;;7.22;4.10;;;15.80;99.90;;;14.57;100.00;97041.94;5047535;28;20099;-63
2021/07/14 08:19:03;;;;;;;11.90;4.60;;;15.80;99.90;;;14.46;100.00;97041.78;5044007;28;20044;-63
2021/07/14 08:21:50;;;;;;;5.63;3.90;;;15.80;99.90;;;14.58;100.00;97046.22;5047453;28;20056;-63
2021/07/14 08:24:38;;;;;;;6.45;3.45;;;15.70;99.90;;;14.66;99.98;97043.06;5043200;28;20413;-65
2021/07/14 08:27:25;;;;;;;10.07;3.85;;;15.70;99.90;;;14.53;100.00;97050.88;5039236;28;20060;-63
2021/07/14 08:30:14;;;;;;;5.95;3.60;;;15.70;99.90;;;14.71;100.00;97050.59;5048764;28;20405;-62
2021/07/14 08:33:01;;;;;;;5.30;3.03;;;15.70;99.90;;;14.80;99.80;97045.59;5031022;28;20109;-62
2021/07/14 08:35:52;;;;;;;4.82;3.05;;;15.80;99.90;;;14.60;99.49;97053.97;5039653;28;20037;-62
2021/07/14 08:38:40;;;;;;;5.47;3.15;;;15.80;99.90;;;14.78;100.00;97049.22;5050567;28;20048;-63
2021/07/14 08:41:28;;;;;;;7.13;3.40;;;15.90;99.90;;;14.84;98.74;97048.81;5043593;28;20053;-62
2021/07/14 08:44:16;;;;;;;6.13;2.72;;;16.00;99.90;;;15.01;97.88;97035.44;5045929;28;20060;-62
2021/07/14 08:47:07;;;;;;;6.88;2.97;;;16.00;99.90;;;14.85;98.52;97033.06;5033324;28;20127;-63
2021/07/14 08:49:55;;;;;;;5.35;2.80;;;16.10;99.90;;;14.94;98.04;97031.59;5045777;28;20461;-63
2021/07/14 08:52:45;;;;;;;3.92;2.88;;;16.20;99.90;;;14.91;98.19;97037.00;5033430;28;20528;-63
2021/07/14 08:55:34;;;;;;;4.10;2.30;;;16.20;99.90;;;15.06;97.77;97037.75;5046005;28;20048;-62
2021/07/14 08:58:24;;;;;;;3.50;1.92;;;16.30;99.90;;;15.27;96.65;97045.88;5032777;28;20048;-62
2021/07/14 09:01:12;;;;;;;7.72;2.10;;;16.30;99.90;;;15.23;95.42;97063.53;5048949;28;20129;-63
2021/07/14 09:04:00;;;;;;;5.38;2.47;;;16.50;99.90;;;15.36;96.04;97063.53;5046675;28;20534;-63
2021/07/14 09:06:48;;;;;;;5.30;2.83;;;16.70;99.90;;;15.18;96.46;97054.34;5052262;28;20463;-62
2021/07/14 09:09:37;;;;;;;5.30;2.30;;;16.70;99.90;;;14.85;98.11;97060.97;5043639;28;20053;-63
2021/07/14 09:12:40;;;;;;;6.20;2.97;;;16.60;99.90;;;14.71;99.68;97067.13;5048998;28;20053;-63
2021/07/14 09:15:31;;;;;;;3.33;2.10;;;16.50;99.90;;;14.92;98.52;97058.78;5019522;28;20041;-60
2021/07/14 09:18:23;;;;;;;4.65;2.42;;;16.30;99.90;;;15.02;98.46;97067.66;5030446;28;20041;-62
2021/07/14 09:21:16;;;;;;;5.30;2.50;;;16.20;99.90;;;14.92;98.39;97066.63;5051605;28;20147;-63
2021/07/14 09:24:32;;;;;;;4.75;2.03;;;16.40;99.90;;;15.27;95.71;97074.63;5048172;28;20090;-62
2021/07/14 09:27:27;;;;;;;3.38;1.92;;;16.40;99.90;;;15.22;96.27;97077.56;5048214;28;20037;-62
2021/07/14 09:30:16;;;;;;;5.53;2.20;;;16.40;99.90;;;15.29;95.40;97062.28;5049673;28;20043;-60
2021/07/14 09:33:07;;;;;;;4.35;2.70;;;16.50;99.90;;;15.38;96.35;97071.28;5017616;28;20057;-62
2021/07/14 09:35:57;;;;;;;6.55;2.25;;;16.50;99.90;;;14.99;97.38;97081.75;5043101;28;20546;-62
2021/07/14 09:38:45;;;;;;;4.43;2.60;;;16.40;99.90;;;14.88;98.73;97084.25;5050565;28;20053;-63
2021/07/14 09:41:35;;;;;;;2.90;2.00;;;16.30;99.90;;;15.12;97.18;97096.59;5044857;28;20033;-63
2021/07/14 09:44:23;;;;;;;7.85;2.38;;;16.10;99.90;;;14.71;98.13;97114.16;5049218;28;20353;-63
2021/07/14 09:47:20;;;;;;;8.63;3.10;;;16.10;99.90;;;14.65;98.76;97111.94;5047585;28;20150;-63
2021/07/14 09:50:08;;;;;;;3.78;2.97;;;16.00;99.90;;;14.55;99.60;97122.16;5036221;28;20044;-63
2021/07/14 09:53:11;;;;;;;3.63;2.25;;;15.90;99.90;;;14.75;100.00;97120.81;5050665;28;20037;-65
2021/07/14 09:56:10;;;;;;;7.32;2.45;;;15.90;99.90;;;14.88;98.96;97123.47;5036404;28;20053;-63
2021/07/14 09:59:09;;;;;;;5.20;2.25;;;16.00;99.90;;;15.14;97.97;97126.91;5048920;28;20047;-62
2021/07/14 10:01:57;;;;;;;5.65;2.30;;;16.10;99.90;;;15.25;97.40;97126.19;5036523;28;20435;-63
2021/07/14 10:04:46;;;;;;;3.90;2.60;;;16.20;99.90;;;15.36;96.69;97131.50;5042214;28;20041;-63
2021/07/14 10:07:34;;;;;;;4.57;2.72;;;16.30;99.90;;;15.20;95.49;97138.75;5050035;28;20049;-63
2021/07/14 10:10:22;;;;;;;3.40;2.50;;;16.30;99.90;;;15.38;96.41;97131.41;4996681;28;1480077;-62
2021/07/14 10:13:11;;;;;;;4.85;2.03;;;16.30;99.90;;;15.33;95.93;97136.97;5036579;28;20044;-62
2021/07/14 10:16:04;;;;;;;4.93;1.90;;;16.40;99.90;;;15.41;94.71;97126.78;5050516;28;20481;-63
2021/07/14 10:18:57;;;;;;;3.88;1.95;;;16.40;99.90;;;15.58;94.96;97116.97;5034203;28;20044;-61
2021/07/14 10:21:49;;;;;;;3.20;1.80;;;16.40;99.90;;;15.39;95.53;97126.06;5031750;28;20041;-63
2021/07/14 10:24:38;;;;;;;;;;;16.50;99.90;;;15.43;94.58;97122.28;5040426;28;20079;-63
2021/07/14 10:27:26;;;;;;;3.90;1.95;;;16.60;99.90;;;15.11;96.03;97132.34;5035107;28;19924;-60
2021/07/14 10:30:16;;;;;;;3.88;1.75;;;16.50;99.90;;;15.00;96.79;97106.13;5034876;28;20409;-63
2021/07/14 10:33:05;;;;;;;2.80;1.92;;;16.50;99.90;;;15.04;97.23;97091.91;5045108;28;20057;-63
2021/07/14 10:35:54;;;;;;;4.38;1.67;;;16.40;99.90;;;15.01;98.00;97098.19;5048555;28;20056;-63
2021/07/14 10:38:49;;;;;;;4.40;1.80;;;16.30;99.90;;;15.07;98.52;97096.91;5027355;28;20042;-63
2021/07/14 10:41:38;;;;;;;4.28;1.60;;;16.10;99.90;;;14.76;99.33;97124.28;5042701;28;20044;-63
2021/07/14 10:44:26;;;;;;;4.97;2.20;;;16.00;99.90;;;14.86;100.00;97117.50;5050719;28;20033;-63
2021/07/14 10:47:15;;;;;;;5.90;2.05;;;16.00;99.90;;;14.81;99.38;97119.59;5050798;28;20048;-62
2021/07/14 10:50:03;;;;;;;5.28;2.85;;;15.90;99.90;;;14.76;100.00;97113.84;5041830;28;20045;-63
2021/07/14 10:52:51;;;;;;;5.25;2.60;;;15.80;99.90;;;14.68;100.00;97101.28;5049064;28;20056;-63
2021/07/14 10:55:40;;;;;;;3.35;2.05;;;15.80;99.90;;;14.65;100.00;97117.16;5047437;28;20060;-62
2021/07/14 10:58:29;;;;;;;3.03;1.85;;;15.70;99.90;;;14.72;100.00;97101.91;5033342;28;20036;-62
2021/07/14 11:01:48;;;;;;;7.40;2.70;;;15.70;99.90;;;14.71;100.00;97095.88;5042422;28;20045;-62
2021/07/14 11:04:36;;;;;;;5.72;2.20;;;15.70;99.90;;;14.56;100.00;97102.94;5044961;28;20057;-62
2021/07/14 11:07:46;;;;;;;5.90;1.77;;;15.80;99.90;;;14.71;100.00;97102.84;5046207;28;20037;-62
2021/07/14 11:10:39;;;;;;;4.07;2.33;;;15.80;99.90;;;14.55;100.00;97097.81;5047263;28;20044;-62
2021/07/14 11:13:30;;;;;;;5.47;2.33;;;15.80;99.90;;;14.72;100.00;97107.97;5046012;28;20040;-63
2021/07/14 11:16:32;;;;;;;4.63;2.15;;;15.70;99.90;;;14.59;100.00;97107.94;5044714;28;20407;-63
2021/07/14 11:19:20;;;;;;;3.28;1.52;;;15.60;99.90;;;14.52;100.00;97126.72;5032878;28;20033;-63
2021/07/14 11:22:08;;;;;;;2.95;1.70;;;15.50;99.90;;;14.46;100.00;97124.50;5031296;28;20079;-62
2021/07/14 11:24:57;;;;;;;3.85;2.00;;;15.50;99.90;;;14.41;100.00;97112.59;5048263;28;20504;-62
2021/07/14 11:27:55;;;;;;;5.00;2.08;;;15.50;99.90;;;14.37;100.00;97113.72;5050167;28;20048;-63
2021/07/14 11:30:52;;;;;;;4.97;2.17;;;15.40;99.90;;;14.34;100.00;97106.06;5047661;28;20040;-63
2021/07/14 11:33:40;;;;;;;3.63;1.95;;;15.40;99.90;;;14.39;100.00;97105.78;5047093;28;20393;-63
2021/07/14 11:36:40;;;;;;;3.28;2.13;;;15.30;99.90;;;14.31;100.00;97106.28;5048507;28;20048;-63
2021/07/14 11:39:29;;;;;;;3.78;1.67;;;15.30;99.90;;;14.36;100.00;97092.94;5035969;28;20037;-63
2021/07/14 11:42:20;;;;;;;6.45;1.83;;;15.30;99.90;;;14.54;100.00;97098.72;5046429;28;20056;-63
2021/07/14 11:45:10;;;;;;;3.65;1.50;;;15.40;99.90;;;14.55;100.00;97097.81;4962709;28;20109;-63
2021/07/14 11:48:05;;;;;;;5.03;1.63;;;15.50;99.90;;;14.71;100.00;97100.22;4971468;28;20089;-63
2021/07/14 11:51:08;;;;;;;2.72;1.48;;;15.50;99.90;;;14.40;100.00;97104.84;4967773;28;20046;-63
2021/07/14 11:53:59;;;;;;;;;;;15.50;99.90;;;14.53;100.00;97102.25;4971032;28;20050;-63
2021/07/14 11:56:50;;;;;;;4.05;2.00;;;15.40;99.90;;;14.34;100.00;97120.91;4969667;28;19922;-63
2021/07/14 11:59:39;;;;;;;6.53;2.03;;;15.40;99.90;;;14.35;100.00;97118.22;4969155;28;20043;-63